Aeroporto :
LOGIN :

Iscrizione | Disclaimer

   EN    FR    IT 

 










Sommario :    VFR   VFR Marginale   IFR   IFR Intensivo   IFR Molto Intensivo
Visibilità : 
Base nubi : 
>= 8 km
>= 3000ft
5 / 8 km
1000 / 3000 ft
1500m / 5 km
500 / 1000 ft
800 / 1500m
200 / 500 ft
< 800m
< 200 ft
Simboli :   Temporali  Nebbia  Neve Forte  Precipitazioni Forti  Vento > 20 kt
SIGMETs :   Varie  Temporali  Ghiacco  Turbolenza  Onda orograficha  Ceneri Vulcaniche






- Altitudine del aeroporto : 333 ft


LIPL - Ghedi Brescia (Mil)

ULTIMO METAR :
  • 121255Z 28006KT 3500 -RA BR SCT005 SCT022 10/07 Q0999 RMK OVC VIS MIN 3500 WIND THR31 28007KT WIND THR13 27006KT YLO

METARs OBSOLETI :
  • 121155Z 27004KT 3500 -RA BR FEW004 SCT006 10/07 Q1001 RMK OVC VIS MIN 3500 WIND THR31 25005KT WIND THR13 25004KT YLO
  • 121055Z 27004KT 3000 -RA BR SCT005 SCT030 09/06 Q1001 RMK OVC VIS MIN 3000 WIND THR31 26006KT WIND THR13 25005KT YLO

TAF TAF LIPL
Valido dal 12 a 12 ore il 12 a 21 ore UTC


121100Z 1212/1221 30008KT 3000 RA BR SCT010 SCT025 BKN060
TEMPO 1212/1215 5000 BR
BECMG 1216/1218 2000 RA BR SCT010 BKN020 BKN050



MetMap, La meteo Aeronautica in un colpo d'occhio ! - Copyright ORBIFLY Dicembre 2007 - Disclaimer

ORBIFLY MET'MAP TEAM :

Programmazione e sviluppo : Alexandra Zaïnal
Concezione e sviluppo : Baudouin d'Aumeries
Co-Programmazione e sviluppo : Marc-Olivier Méhu
Supporto tecnico e logistico : Manuel Goepfert
Aiuto per la traduzione : Arnaldo La Scala

Contatto : metmap@orbifly.com




FONTI E CREDITI :

   NOAA